Time;durP1;ratioP1;P1;durP2;ratioP2;P2;SDS_P1;SDS_P2;PMS_P1;PMS_P2;Temp;Humidity;BMP_temperature;BMP_pressure;BME280_temperature;BME280_humidity;BME280_pressure;Samples;Min_cycle;Max_cycle;Signal;HPM_P1;HPM_P2
2023/05/19 00:00:18;;;;;;;;;;;8.80;97.50;;;;;;5085063;28;19964;-83
2023/05/19 00:02:45;;;;;;;;;;;8.80;97.60;;;;;;5085809;28;19954;-85
2023/05/19 00:05:13;;;;;;;;;;;8.80;97.80;;;;;;5096847;28;19916;-87
2023/05/19 00:07:41;;;;;;;;;;;8.70;97.60;;;;;;5075822;28;20027;-84
2023/05/19 00:10:08;;;;;;;;;;;8.60;97.70;;;;;;5075920;28;20616;-84
2023/05/19 00:12:37;;;;;;;;;;;8.60;98.30;;;;;;5083808;28;19927;-84
2023/05/19 00:15:04;;;;;;;;;;;8.70;98.40;;;;;;5073693;28;19924;-85
2023/05/19 00:17:33;;;;;;;;;;;8.60;98.30;;;;;;5091504;28;19928;-84
2023/05/19 00:20:00;;;;;;;;;;;8.90;98.80;;;;;;5060471;28;20663;-83
2023/05/19 00:22:27;;;;;;;;;;;;;;;;;;5054318;28;20002;-84
2023/05/19 00:24:55;;;;;;;;;;;8.50;98.90;;;;;;5053354;28;19971;-84
2023/05/19 00:27:22;;;;;;;;;;;8.60;98.80;;;;;;5054055;28;19924;-84
2023/05/19 00:29:50;;;;;;;;;;;8.60;99.10;;;;;;5073771;28;19928;-85
2023/05/19 00:32:23;;;;;;;;;;;8.60;99.50;;;;;;5063744;28;19947;-86
2023/05/19 00:34:51;;;;;;;;;;;8.60;99.20;;;;;;5054682;28;20374;-84
2023/05/19 00:37:22;;;;;;;;;;;8.60;99.20;;;;;;5053995;28;19928;-84
2023/05/19 00:39:53;;;;;;;;;;;8.70;99.80;;;;;;5054429;28;19932;-84
2023/05/19 00:42:24;;;;;;;;;;;8.60;99.90;;;;;;5054924;28;19989;-84
2023/05/19 00:44:58;;;;;;;;;;;8.50;99.90;;;;;;5061075;28;20382;-84
2023/05/19 00:47:28;;;;;;;;;;;8.50;99.90;;;;;;5076297;28;19928;-84
2023/05/19 00:49:55;;;;;;;;;;;8.50;99.90;;;;;;5072398;28;19959;-84
2023/05/19 00:52:23;;;;;;;;;;;8.50;99.90;;;;;;5072369;28;19924;-84
2023/05/19 00:54:52;;;;;;;;;;;8.50;99.90;;;;;;5083458;28;20007;-84
2023/05/19 00:57:22;;;;;;;;;;;8.50;99.90;;;;;;5090025;28;19959;-84
2023/05/19 00:59:51;;;;;;;;;;;8.40;99.90;;;;;;5098839;28;19975;-89
2023/05/19 01:02:25;;;;;;;;;;;8.40;99.90;;;;;;5116941;28;19927;-89
2023/05/19 01:04:56;;;;;;;;;;;8.30;99.90;;;;;;5117262;28;19944;-87
2023/05/19 01:07:28;;;;;;;;;;;8.20;99.90;;;;;;5115902;28;19912;-88
2023/05/19 01:10:04;;;;;;;;;;;8.10;99.90;;;;;;5116047;28;19912;-89
2023/05/19 01:12:33;;;;;;;;;;;8.10;99.90;;;;;;5117141;28;19919;-89
2023/05/19 01:15:06;;;;;;;;;;;8.10;99.90;;;;;;5116130;28;19912;-90
2023/05/19 01:17:42;;;;;;;;;;;8.00;99.90;;;;;;5116050;28;19932;-88
2023/05/19 01:20:15;;;;;;;;;;;8.00;99.90;;;;;;5116103;28;20290;-86
2023/05/19 01:22:57;;;;;;;;;;;7.90;99.90;;;;;;5114975;28;19938;-88
2023/05/19 01:26:06;;;;;;;;;;;7.90;99.90;;;;;;5114754;28;19912;-88
2023/05/19 01:29:09;;;;;;;;;;;7.90;99.90;;;;;;5069072;28;19921;-90
2023/05/19 01:31:46;;;;;;;;;;;7.90;99.90;;;;;;5067340;28;19959;-89
2023/05/19 01:34:18;;;;;;;;;;;7.80;99.90;;;;;;5075644;28;19913;-88
2023/05/19 01:36:49;;;;;;;;;;;7.90;99.90;;;;;;5083590;28;19924;-88
2023/05/19 01:39:26;;;;;;;;;;;7.80;99.90;;;;;;5091827;28;19928;-87
2023/05/19 01:41:58;;;;;;;;;;;7.80;99.90;;;;;;5083654;28;19961;-84
2023/05/19 01:44:29;;;;;;;;;;;7.80;99.90;;;;;;5090328;28;19942;-86
2023/05/19 01:46:58;;;;;;;;;;;7.80;99.90;;;;;;5079712;28;19931;-86
2023/05/19 01:49:27;;;;;;;;;;;7.80;99.90;;;;;;5065758;28;19982;-85
2023/05/19 01:52:00;;;;;;;;;;;7.60;99.90;;;;;;5066552;28;19928;-85
2023/05/19 01:54:31;;;;;;;;;;;7.60;99.90;;;;;;5094976;28;19924;-84
2023/05/19 01:57:05;;;;;;;;;;;7.60;99.90;;;;;;5095846;28;19970;-84
2023/05/19 01:59:41;;;;;;;;;;;7.60;99.90;;;;;;5074071;28;19936;-84
2023/05/19 02:02:14;;;;;;;;;;;7.60;99.90;;;;;;5056635;28;20014;-84
2023/05/19 02:04:43;;;;;;;;;;;7.60;99.90;;;;;;5073030;28;19929;-83
2023/05/19 02:07:14;;;;;;;;;;;7.60;99.90;;;;;;5072773;28;19982;-84
2023/05/19 02:09:43;;;;;;;;;;;7.60;99.90;;;;;;5072773;28;20417;-84
2023/05/19 02:12:19;;;;;;;;;;;7.50;99.90;;;;;;5073392;28;19932;-84
2023/05/19 02:14:52;;;;;;;;;;;7.60;99.90;;;;;;5072804;28;20344;-86
2023/05/19 02:17:23;;;;;;;;;;;7.40;99.90;;;;;;5071260;28;20538;-85
2023/05/19 02:19:59;;;;;;;;;;;7.50;99.90;;;;;;5073500;28;20475;-84
2023/05/19 02:22:30;;;;;;;;;;;7.50;99.90;;;;;;5075273;28;19936;-84
2023/05/19 02:24:57;;;;;;;;;;;7.50;99.90;;;;;;5073430;28;20062;-84
2023/05/19 02:27:28;;;;;;;;;;;7.40;99.90;;;;;;5086760;28;20549;-83
2023/05/19 02:30:07;;;;;;;;;;;7.40;99.90;;;;;;5056354;28;19928;-87
2023/05/19 02:32:39;;;;;;;;;;;7.40;99.90;;;;;;5092433;28;19971;-85
2023/05/19 02:35:07;;;;;;;;;;;7.40;99.90;;;;;;5102728;28;19967;-85
2023/05/19 02:37:34;;;;;;;;;;;7.40;99.90;;;;;;5096273;28;20010;-85
2023/05/19 02:40:06;;;;;;;;;;;7.30;99.90;;;;;;5085709;28;19928;-84
2023/05/19 02:42:36;;;;;;;;;;;7.40;99.90;;;;;;5081050;28;19932;-84
2023/05/19 02:45:04;;;;;;;;;;;7.40;99.90;;;;;;5076373;28;19928;-84
2023/05/19 02:47:37;;;;;;;;;;;7.40;99.90;;;;;;5091792;28;20017;-85
2023/05/19 02:50:04;;;;;;;;;;;7.40;99.90;;;;;;5092109;28;19928;-84
2023/05/19 02:52:32;;;;;;;;;;;7.40;99.90;;;;;;5091664;28;19932;-85
2023/05/19 02:55:02;;;;;;;;;;;7.40;99.90;;;;;;5090065;28;20528;-84
2023/05/19 02:57:35;;;;;;;;;;;7.40;99.90;;;;;;5087110;28;19962;-86
2023/05/19 03:00:04;;;;;;;;;;;7.40;99.90;;;;;;5056422;28;19925;-84
2023/05/19 03:02:32;;;;;;;;;;;7.50;99.90;;;;;;5084028;28;19959;-83
2023/05/19 03:05:06;;;;;;;;;;;7.50;99.90;;;;;;5067334;28;19944;-83
2023/05/19 03:07:35;;;;;;;;;;;7.50;99.90;;;;;;5057415;28;20389;-87
2023/05/19 03:10:05;;;;;;;;;;;7.50;99.90;;;;;;5107379;28;19928;-85
2023/05/19 03:12:32;;;;;;;;;;;7.50;99.90;;;;;;5086615;28;19928;-86
2023/05/19 03:15:01;;;;;;;;;;;7.50;99.90;;;;;;5103421;28;19994;-86
2023/05/19 03:17:35;;;;;;;;;;;7.50;99.90;;;;;;5092815;28;19927;-84
2023/05/19 03:20:07;;;;;;;;;;;7.50;99.90;;;;;;5078020;28;19928;-83
2023/05/19 03:22:36;;;;;;;;;;;7.50;99.90;;;;;;5071976;28;19939;-87
2023/05/19 03:25:07;;;;;;;;;;;7.50;99.90;;;;;;5073065;28;19932;-83
2023/05/19 03:27:42;;;;;;;;;;;7.50;99.90;;;;;;5089176;28;19931;-85
2023/05/19 03:30:13;;;;;;;;;;;7.50;99.90;;;;;;5092434;28;19931;-83
2023/05/19 03:32:55;;;;;;;;;;;7.50;99.90;;;;;;5090556;28;19981;-84
2023/05/19 03:35:24;;;;;;;;;;;7.50;99.90;;;;;;5083837;28;19936;-83
2023/05/19 03:37:55;;;;;;;;;;;7.50;99.90;;;;;;5070680;28;19936;-89
2023/05/19 03:40:22;;;;;;;;;;;7.50;99.90;;;;;;5072233;28;19931;-86
2023/05/19 03:42:55;;;;;;;;;;;7.50;99.90;;;;;;5090927;28;19936;-85
2023/05/19 03:45:28;;;;;;;;;;;7.40;99.90;;;;;;5076882;28;20342;-86
2023/05/19 03:47:55;;;;;;;;;;;7.40;99.90;;;;;;5079600;28;19925;-87
2023/05/19 03:50:47;;;;;;;;;;;7.40;99.90;;;;;;5070574;28;19975;-87
2023/05/19 03:53:53;;;;;;;;;;;7.40;99.90;;;;;;5071330;28;19924;-88
2023/05/19 03:56:26;;;;;;;;;;;7.40;99.90;;;;;;5060992;28;19924;-87
2023/05/19 03:58:56;;;;;;;;;;;7.30;99.90;;;;;;5071246;28;19935;-87
2023/05/19 04:01:26;;;;;;;;;;;7.40;99.90;;;;;;5071196;28;19982;-90
2023/05/19 04:03:57;;;;;;;;;;;7.90;99.90;;;;;;5070817;28;19928;-87
2023/05/19 04:06:26;;;;;;;;;;;7.50;99.90;;;;;;5071157;28;20015;-87
2023/05/19 04:09:01;;;;;;;;;;;7.50;99.90;;;;;;5083839;28;19939;-90
2023/05/19 04:11:44;;;;;;;;;;;7.60;99.90;;;;;;5085855;28;19933;-88
2023/05/19 04:14:26;;;;;;;;;;;7.60;99.90;;;;;;5090866;28;19936;-89
2023/05/19 04:17:29;;;;;;;;;;;7.70;99.90;;;;;;5087861;28;19936;-87
2023/05/19 04:20:08;;;;;;;;;;;7.70;99.90;;;;;;5087641;28;19928;-87
2023/05/19 04:22:37;;;;;;;;;;;7.80;99.90;;;;;;5084862;28;19964;-88
2023/05/19 04:25:07;;;;;;;;;;;7.70;99.90;;;;;;5069541;28;19925;-88
2023/05/19 04:27:37;;;;;;;;;;;7.90;99.90;;;;;;5065137;28;19974;-89
2023/05/19 04:30:09;;;;;;;;;;;8.00;99.90;;;;;;5073354;28;19931;-88
2023/05/19 04:32:40;;;;;;;;;;;8.00;99.90;;;;;;5070976;28;19974;-87
2023/05/19 04:35:27;;;;;;;;;;;8.10;99.90;;;;;;5068893;28;19944;-88
2023/05/19 04:37:56;;;;;;;;;;;8.20;99.90;;;;;;5079377;28;19973;-87
2023/05/19 04:40:35;;;;;;;;;;;8.30;99.90;;;;;;5088488;28;19943;-89
2023/05/19 04:43:10;;;;;;;;;;;8.30;99.90;;;;;;5088575;28;19928;-87
2023/05/19 04:45:45;;;;;;;;;;;8.30;99.90;;;;;;5082703;28;20031;-87
2023/05/19 04:48:14;;;;;;;;;;;8.40;99.90;;;;;;5089430;28;19973;-86
2023/05/19 04:50:42;;;;;;;;;;;8.40;99.90;;;;;;5073793;28;20026;-88
2023/05/19 04:53:20;;;;;;;;;;;8.50;99.90;;;;;;5069370;28;19928;-88
2023/05/19 04:55:50;;;;;;;;;;;8.50;99.90;;;;;;5076709;28;20313;-88
2023/05/19 04:58:19;;;;;;;;;;;8.50;99.90;;;;;;5077497;28;19925;-88
2023/05/19 05:00:49;;;;;;;;;;;8.60;99.90;;;;;;5076137;28;19924;-88
2023/05/19 05:03:17;;;;;;;;;;;8.70;99.90;;;;;;5074086;28;19935;-87
2023/05/19 05:05:46;;;;;;;;;;;8.90;99.90;;;;;;5076756;28;19931;-87
2023/05/19 05:08:22;;;;;;;;;;;9.10;99.90;;;;;;5081304;28;20018;-87
2023/05/19 05:10:51;;;;;;;;;;;9.10;99.90;;;;;;5081638;28;19925;-89
2023/05/19 05:13:23;;;;;;;;;;;9.20;99.90;;;;;;5082801;28;19929;-88
2023/05/19 05:15:51;;;;;;;;;;;9.50;99.90;;;;;;5082952;28;19924;-89
2023/05/19 05:18:19;;;;;;;;;;;9.50;99.90;;;;;;5096051;28;19939;-88
2023/05/19 05:20:47;;;;;;;;;;;9.70;99.90;;;;;;5078843;28;19971;-87
2023/05/19 05:23:20;;;;;;;;;;;9.90;99.90;;;;;;5079210;28;19928;-86
2023/05/19 05:25:57;;;;;;;;;;;10.30;99.90;;;;;;5077949;28;19924;-88
2023/05/19 05:28:25;;;;;;;;;;;10.40;99.90;;;;;;5076754;28;19929;-86
2023/05/19 05:30:57;;;;;;;;;;;10.70;99.90;;;;;;5081808;28;19996;-86
2023/05/19 05:33:25;;;;;;;;;;;11.20;99.90;;;;;;5086963;28;19929;-89
2023/05/19 05:35:53;;;;;;;;;;;13.90;99.90;;;;;;5087348;28;20083;-87
2023/05/19 05:38:25;;;;;;;;;;;14.10;99.90;;;;;;5098623;28;19959;-88
2023/05/19 05:40:55;;;;;;;;;;;15.20;99.90;;;;;;5077454;28;20027;-87
2023/05/19 05:43:23;;;;;;;;;;;16.30;99.90;;;;;;5081781;28;19955;-87
2023/05/19 05:45:57;;;;;;;;;;;17.20;99.90;;;;;;5076497;28;19924;-87
2023/05/19 05:48:30;;;;;;;;;;;17.90;99.90;;;;;;5084121;28;19924;-87
2023/05/19 05:51:01;;;;;;;;;;;18.60;99.90;;;;;;5081618;28;19939;-87
2023/05/19 05:53:37;;;;;;;;;;;19.40;99.90;;;;;;5081532;28;19950;-86
2023/05/19 05:56:04;;;;;;;;;;;20.00;99.90;;;;;;5083070;28;19952;-86
2023/05/19 05:58:42;;;;;;;;;;;20.70;99.90;;;;;;5075839;28;19929;-86
2023/05/19 06:01:15;;;;;;;;;;;21.30;99.90;;;;;;5077507;28;19950;-86
2023/05/19 06:03:43;;;;;;;;;;;21.40;99.90;;;;;;5074700;28;20425;-86
2023/05/19 06:06:14;;;;;;;;;;;22.30;99.90;;;;;;5072920;28;19939;-87
2023/05/19 06:08:47;;;;;;;;;;;22.40;99.90;;;;;;5073831;28;20420;-86
2023/05/19 06:11:20;;;;;;;;;;;22.80;97.80;;;;;;5080470;28;19929;-88
2023/05/19 06:13:51;;;;;;;;;;;22.80;97.30;;;;;;5082017;28;19929;-87
2023/05/19 06:16:38;;;;;;;;;;;23.20;95.40;;;;;;5083265;28;20405;-87
2023/05/19 06:19:12;;;;;;;;;;;23.30;95.50;;;;;;5085051;28;19924;-87
2023/05/19 06:21:43;;;;;;;;;;;24.10;95.90;;;;;;5079119;28;19988;-88
2023/05/19 06:24:19;;;;;;;;;;;24.90;94.40;;;;;;5085091;28;19928;-89
2023/05/19 06:26:50;;;;;;;;;;;25.00;94.10;;;;;;5084294;28;20006;-87
2023/05/19 06:29:38;;;;;;;;;;;25.20;91.70;;;;;;5090064;28;19993;-87
2023/05/19 06:32:22;;;;;;;;;;;25.50;90.20;;;;;;5091412;28;19990;-88
2023/05/19 06:34:56;;;;;;;;;;;25.40;90.40;;;;;;5105948;28;19928;-87
2023/05/19 06:37:25;;;;;;;;;;;25.50;90.20;;;;;;5108287;28;19943;-87
2023/05/19 06:39:56;;;;;;;;;;;26.10;90.00;;;;;;5100475;28;19932;-86
2023/05/19 06:42:24;;;;;;;;;;;26.80;87.20;;;;;;5096809;28;19928;-87
2023/05/19 06:45:21;;;;;;;;;;;27.40;83.90;;;;;;5076863;28;19924;-88
2023/05/19 06:47:57;;;;;;;;;;;27.30;83.10;;;;;;5092191;28;19950;-87
2023/05/19 06:50:31;;;;;;;;;;;27.30;80.90;;;;;;5096038;28;19944;-88
2023/05/19 06:52:59;;;;;;;;;;;28.00;78.70;;;;;;5092727;28;19963;-88
2023/05/19 06:55:28;;;;;;;;;;;28.30;75.70;;;;;;5095254;28;19913;-89
2023/05/19 06:57:59;;;;;;;;;;;28.30;78.30;;;;;;5097272;28;19912;-89
2023/05/19 07:00:32;;;;;;;;;;;28.50;75.20;;;;;;5095946;28;19947;-90
2023/05/19 07:03:14;;;;;;;;;;;28.60;75.30;;;;;;5077833;28;20178;-87
2023/05/19 07:05:51;;;;;;;;;;;28.00;74.30;;;;;;5070372;28;19938;-88
2023/05/19 07:08:26;;;;;;;;;;;27.90;75.20;;;;;;5096367;28;19952;-88
2023/05/19 07:10:56;;;;;;;;;;;27.40;73.50;;;;;;5092338;28;19943;-88
2023/05/19 07:13:25;;;;;;;;;;;27.50;73.60;;;;;;5081124;28;19935;-88
2023/05/19 07:16:04;;;;;;;;;;;27.80;70.50;;;;;;5078980;28;19935;-86
2023/05/19 07:18:34;;;;;;;;;;;27.70;70.10;;;;;;5079128;28;19924;-87
2023/05/19 07:21:03;;;;;;;;;;;27.70;71.90;;;;;;5086847;28;19992;-88
2023/05/19 07:23:39;;;;;;;;;;;27.70;71.10;;;;;;5080494;28;19935;-87
2023/05/19 07:26:11;;;;;;;;;;;27.50;68.00;;;;;;5089649;28;19930;-88
2023/05/19 07:28:46;;;;;;;;;;;27.40;68.10;;;;;;5090710;28;19936;-88
2023/05/19 07:31:15;;;;;;;;;;;27.30;69.60;;;;;;5078460;28;20081;-87
2023/05/19 07:33:54;;;;;;;;;;;27.70;70.90;;;;;;5094050;28;19947;-89
2023/05/19 07:36:31;;;;;;;;;;;28.50;71.90;;;;;;5078572;28;19925;-89
2023/05/19 07:39:00;;;;;;;;;;;28.50;71.10;;;;;;5078878;28;19999;-87
2023/05/19 07:41:42;;;;;;;;;;;28.90;65.70;;;;;;5075774;28;20391;-88
2023/05/19 07:44:09;;;;;;;;;;;29.00;66.10;;;;;;5058942;28;19940;-88
2023/05/19 07:46:38;;;;;;;;;;;30.30;69.60;;;;;;5094703;28;19924;-88
2023/05/19 07:49:14;;;;;;;;;;;30.50;67.10;;;;;;5103548;28;19950;-91
2023/05/19 07:51:46;;;;;;;;;;;29.30;64.30;;;;;;5112541;28;19912;-90
2023/05/19 07:54:19;;;;;;;;;;;28.40;64.80;;;;;;5114355;28;19935;-92
2023/05/19 07:56:51;;;;;;;;;;;29.10;62.70;;;;;;5114001;28;20027;-90
2023/05/19 07:59:19;;;;;;;;;;;29.60;65.40;;;;;;5114699;28;19912;-90
2023/05/19 08:01:56;;;;;;;;;;;;;;;;;;5113173;28;19928;-89
2023/05/19 08:04:23;;;;;;;;;;;29.10;62.50;;;;;;5088306;28;19978;-87
2023/05/19 08:06:53;;;;;;;;;;;29.00;62.50;;;;;;5093274;28;19958;-88
2023/05/19 08:09:21;;;;;;;;;;;28.80;62.90;;;;;;5092897;28;19988;-89
2023/05/19 08:12:06;;;;;;;;;;;29.00;61.50;;;;;;5088507;28;19913;-87
2023/05/19 08:14:34;;;;;;;;;;;28.90;62.60;;;;;;5085920;28;19928;-89
2023/05/19 08:17:05;;;;;;;;;;;29.20;63.60;;;;;;5070049;28;20263;-89
2023/05/19 08:19:34;;;;;;;;;;;29.90;64.40;;;;;;5084068;28;19935;-89
2023/05/19 08:22:07;;;;;;;;;;;30.90;63.20;;;;;;5095242;28;19912;-91
2023/05/19 08:24:37;;;;;;;;;;;30.60;60.00;;;;;;5114047;28;19912;-91
2023/05/19 08:27:08;;;;;;;;;;;29.30;62.00;;;;;;5114807;28;19937;-89
2023/05/19 08:29:37;;;;;;;;;;;29.40;61.50;;;;;;5114600;28;19918;-90
2023/05/19 08:32:07;;;;;;;;;;;29.40;59.50;;;;;;5115069;28;19934;-89
2023/05/19 08:34:35;;;;;;;;;;;29.50;59.70;;;;;;5107248;28;19938;-89
2023/05/19 08:37:16;;;;;;;;;;;29.00;58.80;;;;;;5112588;28;19935;-88
2023/05/19 08:40:03;;;;;;;;;;;28.50;57.60;;;;;;5093207;28;19963;-88
2023/05/19 08:42:35;;;;;;;;;;;27.50;59.90;;;;;;5093744;28;19951;-88
2023/05/19 08:45:29;;;;;;;;;;;28.30;59.40;;;;;;5092505;28;19912;-92
2023/05/19 08:47:58;;;;;;;;;;;28.50;59.50;;;;;;5075341;28;19950;-89
2023/05/19 08:50:30;;;;;;;;;;;29.20;60.00;;;;;;5075888;28;19940;-87
2023/05/19 08:53:01;;;;;;;;;;;28.60;57.90;;;;;;5070588;28;19929;-87
2023/05/19 08:55:33;;;;;;;;;;;28.70;58.70;;;;;;5072332;28;19917;-87
2023/05/19 08:58:03;;;;;;;;;;;28.90;56.80;;;;;;5073356;28;19913;-87
2023/05/19 09:00:30;;;;;;;;;;;29.00;56.50;;;;;;5073398;28;19932;-86
2023/05/19 09:02:59;;;;;;;;;;;28.60;56.10;;;;;;5088735;28;19933;-87
2023/05/19 09:05:26;;;;;;;;;;;28.20;57.40;;;;;;5093260;28;20084;-87
2023/05/19 09:07:53;;;;;;;;;;;27.60;58.30;;;;;;5093376;28;19980;-87
2023/05/19 09:10:20;;;;;;;;;;;27.70;58.50;;;;;;5092887;28;19912;-89
2023/05/19 09:12:48;;;;;;;;;;;28.00;58.10;;;;;;5085622;28;20007;-87
2023/05/19 09:15:19;;;;;;;;;;;28.30;57.30;;;;;;5094460;28;19954;-90
2023/05/19 09:18:03;;;;;;;;;;;28.20;56.50;;;;;;5095043;28;19984;-88
2023/05/19 09:20:39;;;;;;;;;;;27.70;56.50;;;;;;5113270;28;19926;-87
2023/05/19 09:23:06;;;;;;;;;;;27.80;57.90;;;;;;5071832;28;19913;-89
2023/05/19 09:25:33;;;;;;;;;;;27.70;58.10;;;;;;5073215;28;19925;-87
2023/05/19 09:28:00;;;;;;;;;;;27.40;57.40;;;;;;5086024;28;20012;-87
2023/05/19 09:30:30;;;;;;;;;;;27.30;57.40;;;;;;5091993;28;19988;-87
2023/05/19 09:32:57;;;;;;;;;;;27.10;57.10;;;;;;5091178;28;19963;-87
2023/05/19 09:35:24;;;;;;;;;;;27.00;58.20;;;;;;5092264;28;19953;-87
2023/05/19 09:37:51;;;;;;;;;;;26.50;58.40;;;;;;5089672;28;19942;-87
2023/05/19 09:40:20;;;;;;;;;;;26.60;58.70;;;;;;5090677;28;19948;-88
2023/05/19 09:42:54;;;;;;;;;;;26.60;58.20;;;;;;5090999;28;19931;-88
2023/05/19 09:45:22;;;;;;;;;;;26.20;58.00;;;;;;5083973;28;19968;-87
2023/05/19 09:47:51;;;;;;;;;;;26.00;58.10;;;;;;5085441;28;19928;-88
2023/05/19 09:50:19;;;;;;;;;;;24.70;58.40;;;;;;5088797;28;19928;-88
2023/05/19 09:52:50;;;;;;;;;;;24.70;58.70;;;;;;5086621;28;19928;-87
2023/05/19 09:55:18;;;;;;;;;;;23.60;59.10;;;;;;5087614;28;19956;-87
2023/05/19 09:57:45;;;;;;;;;;;22.20;58.90;;;;;;5072059;28;19968;-90
2023/05/19 10:00:17;;;;;;;;;;;20.90;61.30;;;;;;5073586;28;19925;-87
2023/05/19 10:02:44;;;;;;;;;;;20.50;61.60;;;;;;5094507;28;19932;-87
2023/05/19 10:05:15;;;;;;;;;;;20.50;62.00;;;;;;5102656;28;19928;-87
2023/05/19 10:07:44;;;;;;;;;;;20.10;62.30;;;;;;5085036;28;19962;-87
2023/05/19 10:10:12;;;;;;;;;;;19.90;63.50;;;;;;5095735;28;19912;-89
2023/05/19 10:12:44;;;;;;;;;;;19.80;63.90;;;;;;5094846;28;19957;-89
2023/05/19 10:15:14;;;;;;;;;;;19.70;64.40;;;;;;5096282;28;19924;-89
2023/05/19 10:17:42;;;;;;;;;;;19.50;63.60;;;;;;5097761;28;19919;-88
2023/05/19 10:20:11;;;;;;;;;;;19.40;63.70;;;;;;5095366;28;20007;-90
2023/05/19 10:22:47;;;;;;;;;;;21.60;67.00;;;;;;5095733;28;19916;-91
2023/05/19 10:25:17;;;;;;;;;;;19.20;64.20;;;;;;5095139;28;19942;-89
2023/05/19 10:27:47;;;;;;;;;;;19.20;64.40;;;;;;5094825;28;19931;-87
2023/05/19 10:30:15;;;;;;;;;;;19.20;65.50;;;;;;5095126;28;19916;-89
2023/05/19 10:32:45;;;;;;;;;;;20.90;66.70;;;;;;5096702;28;19944;-88
2023/05/19 10:35:33;;;;;;;;;;;19.40;65.50;;;;;;5096757;28;19913;-89
2023/05/19 10:38:11;;;;;;;;;;;19.40;64.00;;;;;;5092463;28;19920;-90
2023/05/19 10:40:44;;;;;;;;;;;19.20;64.90;;;;;;5097647;28;19924;-92
2023/05/19 10:43:21;;;;;;;;;;;19.20;66.00;;;;;;5096605;28;19924;-91
2023/05/19 10:45:52;;;;;;;;;;;19.20;66.10;;;;;;5096660;28;19979;-92
2023/05/19 10:48:20;;;;;;;;;;;19.20;66.30;;;;;;5097473;28;19912;-91
2023/05/19 10:50:53;;;;;;;;;;;19.20;65.90;;;;;;5097609;28;19920;-92
2023/05/19 10:53:22;;;;;;;;;;;19.20;66.40;;;;;;5095706;28;19985;-91
2023/05/19 10:56:23;;;;;;;;;;;19.30;66.40;;;;;;5097641;28;19912;-91
2023/05/19 10:58:50;;;;;;;;;;;19.30;67.00;;;;;;5097689;28;19912;-91
2023/05/19 11:01:23;;;;;;;;;;;19.20;67.30;;;;;;5095745;28;19954;-91
2023/05/19 11:03:52;;;;;;;;;;;19.70;67.50;;;;;;5096957;28;19912;-91
2023/05/19 11:06:32;;;;;;;;;;;19.70;66.80;;;;;;5095799;28;19955;-91
2023/05/19 11:09:03;;;;;;;;;;;19.80;68.20;;;;;;5095341;28;20035;-91
2023/05/19 11:11:44;;;;;;;;;;;20.20;67.00;;;;;;5096000;28;19917;-90
2023/05/19 11:14:11;;;;;;;;;;;20.30;67.00;;;;;;5096237;28;19939;-90
2023/05/19 11:16:40;;;;;;;;;;;20.40;66.90;;;;;;5112328;28;19912;-90
2023/05/19 11:19:07;;;;;;;;;;;20.20;66.10;;;;;;5107354;28;19976;-90
2023/05/19 11:21:41;;;;;;;;;;;20.20;66.40;;;;;;5093734;28;20205;-90
2023/05/19 11:24:10;;;;;;;;;;;20.30;66.00;;;;;;5095333;28;19972;-88
2023/05/19 11:26:43;;;;;;;;;;;20.30;65.40;;;;;;5094089;28;19913;-89
2023/05/19 11:29:14;;;;;;;;;;;20.30;65.40;;;;;;5094537;28;19932;-89
2023/05/19 11:31:43;;;;;;;;;;;20.40;65.70;;;;;;5095348;28;19984;-90
2023/05/19 11:34:17;;;;;;;;;;;20.40;65.10;;;;;;5109004;28;19912;-89
2023/05/19 11:36:44;;;;;;;;;;;20.50;65.20;;;;;;5096168;28;19919;-88
2023/05/19 11:39:12;;;;;;;;;;;20.40;64.60;;;;;;5094295;28;19919;-90
2023/05/19 11:41:40;;;;;;;;;;;20.30;64.90;;;;;;5093697;28;20227;-90
2023/05/19 11:44:09;;;;;;;;;;;20.40;65.40;;;;;;5094762;28;19974;-91
2023/05/19 11:46:38;;;;;;;;;;;20.40;64.60;;;;;;5093123;28;19932;-91
2023/05/19 11:49:08;;;;;;;;;;;20.40;64.60;;;;;;5111089;28;19933;-93
2023/05/19 11:51:40;;;;;;;;;;;20.50;65.20;;;;;;5094823;28;19956;-92
2023/05/19 11:54:07;;;;;;;;;;;20.60;65.10;;;;;;5082417;22;20014;-75
2023/05/19 11:56:39;;;;;;;;;;;20.90;66.50;;;;;;5067783;28;19975;-75
2023/05/19 11:59:06;;;;;;;;;;;21.00;65.20;;;;;;5067003;28;20006;-76
2023/05/19 12:01:33;;;;;;;;;;;21.10;65.40;;;;;;5056930;28;20293;-77
2023/05/19 12:04:00;;;;;;;;;;;20.60;64.40;;;;;;5056495;28;19928;-76
2023/05/19 12:06:28;;;;;;;;;;;21.20;64.40;;;;;;5066177;28;20377;-76
2023/05/19 12:08:55;;;;;;;;;;;21.20;64.80;;;;;;5055847;28;19991;-76
2023/05/19 12:11:22;;;;;;;;;;;21.20;65.40;;;;;;5067111;28;19935;-76
2023/05/19 12:13:53;;;;;;;;;;;21.40;65.50;;;;;;5065424;28;19939;-77
2023/05/19 12:16:20;;;;;;;;;;;21.60;65.70;;;;;;5064315;28;19935;-76
2023/05/19 12:18:46;;;;;;;;;;;21.90;65.80;;;;;;5058070;28;19928;-76
2023/05/19 12:21:13;;;;;;;;;;;21.90;64.50;;;;;;5057255;28;20729;-76
2023/05/19 12:23:41;;;;;;;;;;;21.80;64.30;;;;;;5063079;28;19956;-76
2023/05/19 12:26:08;;;;;;;;;;;21.50;64.70;;;;;;5068632;28;19979;-76
2023/05/19 12:28:35;;;;;;;;;;;21.60;65.90;;;;;;5070322;28;20377;-75
2023/05/19 12:31:03;;;;;;;;;;;21.80;64.50;;;;;;5069049;28;20286;-75
2023/05/19 12:33:32;;;;;;;;;;;21.90;64.60;;;;;;5063797;28;20023;-76
2023/05/19 12:35:58;;;;;;;;;;;22.00;64.60;;;;;;5066426;28;20688;-76
2023/05/19 12:38:25;;;;;;;;;;;22.20;65.50;;;;;;5065586;28;19955;-75
2023/05/19 12:40:52;;;;;;;;;;;22.30;64.20;;;;;;5068963;28;19951;-76
2023/05/19 12:43:19;;;;;;;;;;;22.00;63.90;;;;;;5071544;28;19928;-75
2023/05/19 12:45:46;;;;;;;;;;;21.80;63.90;;;;;;5059906;28;19929;-76
2023/05/19 12:48:15;;;;;;;;;;;21.80;64.90;;;;;;5062873;28;19940;-76
2023/05/19 12:50:43;;;;;;;;;;;22.00;65.20;;;;;;5063811;28;19929;-76
2023/05/19 12:53:10;;;;;;;;;;;22.00;64.20;;;;;;5067487;28;20012;-76
2023/05/19 12:55:39;;;;;;;;;;;21.80;64.50;;;;;;5087720;28;20031;-75
2023/05/19 12:58:06;;;;;;;;;;;21.80;65.10;;;;;;5083911;28;19960;-77
2023/05/19 13:00:34;;;;;;;;;;;22.10;65.20;;;;;;5086007;28;20401;-77
2023/05/19 13:03:03;;;;;;;;;;;22.30;64.00;;;;;;5081006;28;19935;-76
2023/05/19 13:05:32;;;;;;;;;;;22.10;64.20;;;;;;5074262;28;19953;-76
2023/05/19 13:08:00;;;;;;;;;;;21.90;64.50;;;;;;5080926;28;19928;-76
2023/05/19 13:10:28;;;;;;;;;;;21.60;64.60;;;;;;5082228;28;20014;-76
2023/05/19 13:12:55;;;;;;;;;;;21.80;64.90;;;;;;5094331;28;19935;-76
2023/05/19 13:15:22;;;;;;;;;;;21.80;65.20;;;;;;5072679;28;19929;-76
2023/05/19 13:17:49;;;;;;;;;;;21.90;64.20;;;;;;5068175;28;20260;-76
2023/05/19 13:20:16;;;;;;;;;;;22.10;64.80;;;;;;5084163;28;20425;-75
2023/05/19 13:22:44;;;;;;;;;;;22.50;63.90;;;;;;5079215;28;20613;-75
2023/05/19 13:25:11;;;;;;;;;;;22.50;64.00;;;;;;5083630;28;19950;-75
2023/05/19 13:27:37;;;;;;;;;;;22.50;64.70;;;;;;5085322;28;20323;-75
2023/05/19 13:30:04;;;;;;;;;;;22.60;65.60;;;;;;5102188;28;20277;-77
2023/05/19 13:35:06;;;;;;;;;;;22.50;63.00;;;;;;5068475;28;19933;-76
2023/05/19 13:37:33;;;;;;;;;;;22.30;64.00;;;;;;5069380;28;19928;-76
2023/05/19 13:40:01;;;;;;;;;;;22.30;64.70;;;;;;5069924;28;19928;-76
2023/05/19 13:42:28;;;;;;;;;;;23.60;66.60;;;;;;5077717;28;19924;-77
2023/05/19 13:44:55;;;;;;;;;;;22.50;65.60;;;;;;5091916;28;19993;-77
2023/05/19 13:47:22;;;;;;;;;;;22.60;65.40;;;;;;5083824;28;19936;-76
2023/05/19 13:49:49;;;;;;;;;;;22.60;64.70;;;;;;5075407;28;19928;-77
2023/05/19 13:52:16;;;;;;;;;;;22.20;63.50;;;;;;5090041;28;19928;-76
2023/05/19 13:54:42;;;;;;;;;;;22.20;64.20;;;;;;5090474;28;19970;-74
2023/05/19 13:57:11;;;;;;;;;;;22.30;64.80;;;;;;5092904;28;19931;-77
2023/05/19 13:59:38;;;;;;;;;;;22.30;65.10;;;;;;5095119;28;19971;-77
2023/05/19 14:02:05;;;;;;;;;;;22.50;65.00;;;;;;5086888;28;19940;-76
2023/05/19 14:04:31;;;;;;;;;;;22.70;65.00;;;;;;5069274;28;19932;-76
2023/05/19 14:06:58;;;;;;;;;;;23.00;64.40;;;;;;5090271;28;19930;-76
2023/05/19 14:09:25;;;;;;;;;;;23.10;64.80;;;;;;5089826;28;19928;-76
2023/05/19 14:11:51;;;;;;;;;;;23.30;63.40;;;;;;5089864;28;19955;-75
2023/05/19 14:14:19;;;;;;;;;;;23.30;64.10;;;;;;5090147;28;19931;-76
2023/05/19 14:16:46;;;;;;;;;;;23.30;63.90;;;;;;5081262;28;19928;-76
2023/05/19 14:19:13;;;;;;;;;;;23.20;63.00;;;;;;5082303;28;20562;-76
2023/05/19 14:21:40;;;;;;;;;;;22.70;62.30;;;;;;5079947;28;20405;-76
2023/05/19 14:24:06;;;;;;;;;;;22.70;63.00;;;;;;5070776;28;19929;-76
2023/05/19 14:26:33;;;;;;;;;;;22.60;63.50;;;;;;5083966;28;19932;-77
2023/05/19 14:29:00;;;;;;;;;;;22.60;63.90;;;;;;5084396;28;20066;-76
2023/05/19 14:31:28;;;;;;;;;;;22.70;64.10;;;;;;5082384;28;19935;-75
2023/05/19 14:33:55;;;;;;;;;;;22.60;62.30;;;;;;5083045;28;19932;-75
2023/05/19 14:36:21;;;;;;;;;;;22.50;63.20;;;;;;5080398;28;19932;-75
2023/05/19 14:38:48;;;;;;;;;;;22.50;62.80;;;;;;5058815;28;20454;-74
2023/05/19 14:41:15;;;;;;;;;;;22.50;64.60;;;;;;5077627;28;19924;-75
2023/05/19 14:43:42;;;;;;;;;;;22.70;63.90;;;;;;5083905;28;19948;-75
2023/05/19 14:46:08;;;;;;;;;;;22.60;61.60;;;;;;5057445;28;19934;-75
2023/05/19 14:48:37;;;;;;;;;;;22.40;62.30;;;;;;5086031;28;20404;-75